Aérodrome :
LOGIN :

S'inscrire | Disclaimer

   EN    FR    IT 

 










Légende :    VFR   VFR Marginal   IFR   IFR Intensif   IFR Très Intensif
Visi : 
Plafond : 
>= 8 km
>= 3000ft
5 à 8 km
1000 à 3000 ft
1500m à 5 km
500 à 1000 ft
800 à 1500m
200 à 500 ft
< 800m
< 200 ft
Symboles :   Orages  Brouillard  Fortes neiges  Fortes précipitations  Vent > 20 kt
SIGMETs :   Divers  Orages  Givrage  Turbulence  Onde Orograph.  Cendres Volcan.






- Altitude de l'aérodrome : 453 ft
- Code IATA : SBK


LFRT - St Brieuc Armor

DERNIER METAR :
  • 251200Z AUTO 28019KT 9999 BKN035 BKN043 10/03 Q1008

METARs EXPIRÉS :
  • 251130Z AUTO 27021G31KT 9999 SCT029 BKN036 BKN042 10/03 Q1008
  • 251100Z AUTO 27019KT 9999 BKN029/// BKN036/// ///TCU 10/05 Q1008
  • 251030Z AUTO 27017KT 9999 BKN026 BKN032 OVC038 09/04 Q1008
  • 251000Z AUTO 26016KT 9999 BKN023 BKN028 BKN035 09/05 Q1009
  • 250930Z AUTO 26015KT 230V290 9999 FEW024/// SCT044/// ///TCU 09/05 Q1009

Prévision TAF périmée.



MET'MAP, la Météo Aéronautique d'un coup d'oeil ! - Copyright ORBIFLY Décembre 2007 - Disclaimer

ORBIFLY MET'MAP TEAM :

Programmation & Développement : Alexandra Zaïnal
Sur une idée originale de : Baudouin d'Aumeries
Assistance à la programmation : Marc-Olivier Méhu
Soutien technique & logistique : Manuel Goepfert

Contact : metmap@orbifly.com




SOURCES & CREDITS :

   NOAA